West Pittsburg, California
Current Conditions -  °F | °C
As of 8:53 PM on Wednesday 17 Dec 2014 (Local Time) from KCCR Reporting Station
Light Rain Light Rain  
Wind Chill: 52°   Ceiling: 6000
Heat Index: 52°   Visibility: 8mi
Dew Point: 48°   Wind: 5mph
Humidity: 86%   Direction: 130°SE
Pressure: 30.08"   Gusts: NA
Location:  38.0121°N, 121.92°W
Report Text: KCCR 180453Z 13004KT 8SM -RA OVC060 11/09 A3008 RMK AO2 SLP171 P0002 T01110089
Loading
Personal Weather Stations






























Interactive Weather Map New forecast layout! Learn more

10-Day Weather Forecast

Advertisements
Track Severe Weather on mobile